createdAt,value
2022-12-09T00:00:23.817Z,3.92
2022-12-09T00:02:51.763Z,3.96
2022-12-09T00:05:20.033Z,3.97
2022-12-09T00:07:48.203Z,3.98
2022-12-09T00:10:17.614Z,3.95
2022-12-09T00:12:45.522Z,3.94
2022-12-09T00:15:13.550Z,3.97
2022-12-09T00:17:41.480Z,3.96
2022-12-09T00:20:10.876Z,3.94
2022-12-09T00:22:39.346Z,3.87
2022-12-09T00:25:08.283Z,3.83
2022-12-09T00:27:37.747Z,3.84
2022-12-09T00:30:06.850Z,3.69
2022-12-09T00:32:35.214Z,3.81
2022-12-09T00:35:04.437Z,3.85
2022-12-09T00:37:32.379Z,3.80
2022-12-09T00:40:00.500Z,3.76
2022-12-09T00:42:28.622Z,3.77
2022-12-09T00:44:57.841Z,3.88
2022-12-09T00:47:26.553Z,3.81
2022-12-09T00:49:54.643Z,3.72
2022-12-09T00:52:22.518Z,3.70
2022-12-09T00:54:50.413Z,3.70
2022-12-09T00:57:18.729Z,3.73
2022-12-09T00:59:47.250Z,3.73
2022-12-09T01:02:16.890Z,3.72
2022-12-09T01:04:45.424Z,3.66
2022-12-09T01:07:15.171Z,3.64
2022-12-09T01:09:43.259Z,3.61
2022-12-09T01:12:11.239Z,3.66
2022-12-09T01:14:39.210Z,3.61
2022-12-09T01:17:07.516Z,3.67
2022-12-09T01:19:37.285Z,3.61
2022-12-09T01:22:05.202Z,3.66
2022-12-09T01:24:33.153Z,3.62
2022-12-09T01:27:01.269Z,3.63
2022-12-09T01:29:29.386Z,3.65
2022-12-09T01:31:57.416Z,3.62
2022-12-09T01:34:26.819Z,3.66
2022-12-09T01:36:56.288Z,3.62
2022-12-09T01:39:24.573Z,3.60
2022-12-09T01:41:52.947Z,3.62
2022-12-09T01:44:23.153Z,3.60
2022-12-09T01:46:55.071Z,3.53
2022-12-09T01:49:26.025Z,3.51
2022-12-09T01:52:03.952Z,3.47
2022-12-09T01:54:33.094Z,3.50
2022-12-09T01:57:01.086Z,3.53
2022-12-09T01:59:30.488Z,3.52
2022-12-09T02:02:00.986Z,3.56
2022-12-09T02:04:33.649Z,3.57
2022-12-09T02:07:07.161Z,3.50
2022-12-09T02:09:35.628Z,3.66
2022-12-09T02:12:13.623Z,3.65
2022-12-09T02:14:44.151Z,3.75
2022-12-09T02:17:28.935Z,3.68
2022-12-09T02:20:06.363Z,3.78
2022-12-09T02:22:42.271Z,3.79
2022-12-09T02:25:23.180Z,3.82
2022-12-09T02:28:07.412Z,3.82
2022-12-09T02:30:42.136Z,3.92
2022-12-09T02:33:27.543Z,3.94
2022-12-09T02:36:03.360Z,3.98
2022-12-09T02:38:34.661Z,3.96
2022-12-09T02:41:06.924Z,4.01
2022-12-09T02:43:45.166Z,4.06
2022-12-09T02:46:21.229Z,4.11
2022-12-09T02:48:54.244Z,4.09
2022-12-09T02:51:27.290Z,4.08
2022-12-09T02:53:57.339Z,4.02
2022-12-09T02:56:26.254Z,3.84
2022-12-09T02:58:54.609Z,4.05
2022-12-09T03:01:33.527Z,3.96
2022-12-09T03:04:03.874Z,4.02
2022-12-09T03:06:41.628Z,4.10
2022-12-09T03:09:12.979Z,4.17
2022-12-09T03:11:42.254Z,4.11
2022-12-09T03:14:13.909Z,4.10
2022-12-09T03:16:47.089Z,4.14
2022-12-09T03:19:21.488Z,4.26
2022-12-09T03:21:55.402Z,4.20
2022-12-09T03:24:28.875Z,4.29
2022-12-09T03:26:59.851Z,4.29
2022-12-09T03:29:30.357Z,4.15
2022-12-09T03:32:00.282Z,4.29
2022-12-09T03:34:35.704Z,4.28
2022-12-09T03:37:08.253Z,4.23
2022-12-09T03:39:40.148Z,4.16
2022-12-09T03:42:16.570Z,4.23
2022-12-09T03:44:49.963Z,4.09
2022-12-09T03:47:18.091Z,4.18
2022-12-09T03:49:46.258Z,4.17
2022-12-09T03:52:20.325Z,4.18
2022-12-09T03:54:51.885Z,4.18
2022-12-09T03:57:21.402Z,4.08
2022-12-09T03:59:55.348Z,4.12
2022-12-09T04:02:23.749Z,4.11
2022-12-09T04:04:52.533Z,4.15
2022-12-09T04:07:22.195Z,4.17
2022-12-09T04:09:50.163Z,4.21
2022-12-09T04:12:18.862Z,4.24
2022-12-09T04:14:47.102Z,4.24
2022-12-09T04:17:15.389Z,4.26
2022-12-09T04:19:43.325Z,4.30
2022-12-09T04:22:11.272Z,4.26
2022-12-09T04:24:40.555Z,4.31
2022-12-09T04:27:08.564Z,4.37
2022-12-09T04:29:36.474Z,4.43
2022-12-09T04:32:04.476Z,4.43
2022-12-09T04:34:33.993Z,4.44
2022-12-09T04:37:02.016Z,4.30
2022-12-09T04:39:30.253Z,4.46
2022-12-09T04:41:59.872Z,4.56
2022-12-09T04:44:27.928Z,4.57
2022-12-09T04:46:55.884Z,4.42
2022-12-09T04:49:24.402Z,4.40
2022-12-09T04:51:52.290Z,4.39
2022-12-09T04:54:20.201Z,4.46
2022-12-09T04:56:50.332Z,4.40
2022-12-09T04:59:19.822Z,4.44
2022-12-09T05:01:47.930Z,4.34
2022-12-09T05:04:16.451Z,4.46
2022-12-09T05:06:44.908Z,4.37
2022-12-09T05:09:14.341Z,4.21
2022-12-09T05:11:42.666Z,4.22
2022-12-09T05:14:10.781Z,4.16
2022-12-09T05:16:40.548Z,4.04
2022-12-09T05:19:08.665Z,4.01
2022-12-09T05:21:37.447Z,4.03
2022-12-09T05:24:06.342Z,4.12
2022-12-09T05:26:34.508Z,3.99
2022-12-09T05:29:02.540Z,3.94
2022-12-09T05:31:31.183Z,3.92
2022-12-09T05:34:00.650Z,3.83
2022-12-09T05:36:29.104Z,3.82
2022-12-09T05:38:57.261Z,3.75
2022-12-09T05:41:26.283Z,3.76
2022-12-09T05:43:54.292Z,3.87
2022-12-09T05:46:22.935Z,3.94
2022-12-09T05:48:51.631Z,3.98
2022-12-09T05:51:24.815Z,4.06
2022-12-09T05:53:53.977Z,4.14
2022-12-09T05:56:23.533Z,4.20
2022-12-09T05:58:53.314Z,4.22
2022-12-09T06:01:22.264Z,4.28
2022-12-09T06:03:52.129Z,4.33
2022-12-09T06:06:23.970Z,4.26
2022-12-09T06:08:56.361Z,4.30
2022-12-09T06:11:25.040Z,4.27
2022-12-09T06:13:53.704Z,4.36
2022-12-09T06:16:23.388Z,4.43
2022-12-09T06:18:51.997Z,4.22
2022-12-09T06:21:22.721Z,4.20
2022-12-09T06:23:51.662Z,4.44
2022-12-09T06:26:22.160Z,4.43
2022-12-09T06:28:50.842Z,4.34
2022-12-09T06:31:19.723Z,4.42
2022-12-09T06:33:57.165Z,4.50
2022-12-09T06:36:29.379Z,4.49
2022-12-09T06:39:04.537Z,4.60
2022-12-09T06:41:37.972Z,4.60
2022-12-09T06:44:06.186Z,4.57
2022-12-09T06:46:34.549Z,4.63
2022-12-09T06:49:02.725Z,4.68
2022-12-09T06:51:32.099Z,4.72
2022-12-09T06:54:00.410Z,4.69
2022-12-09T06:56:28.438Z,4.80
2022-12-09T06:58:56.952Z,4.73
2022-12-09T07:01:26.742Z,4.64
2022-12-09T07:03:57.041Z,4.60
2022-12-09T07:06:29.132Z,4.76
2022-12-09T07:09:02.302Z,4.80
2022-12-09T07:11:31.090Z,4.86
2022-12-09T07:13:59.909Z,4.88
2022-12-09T07:16:29.314Z,4.95
2022-12-09T07:18:58.354Z,4.94
2022-12-09T07:21:26.944Z,4.94
2022-12-09T07:23:55.424Z,4.87
2022-12-09T07:26:26.328Z,4.59
2022-12-09T07:28:54.402Z,4.74
2022-12-09T07:31:30.315Z,4.72
2022-12-09T07:34:00.015Z,4.75
2022-12-09T07:36:30.947Z,4.84
2022-12-09T07:39:00.980Z,4.87
2022-12-09T07:41:30.970Z,4.68
2022-12-09T07:43:59.220Z,4.77
2022-12-09T07:46:28.768Z,4.71
2022-12-09T07:48:58.662Z,4.76
2022-12-09T07:51:27.019Z,4.79
2022-12-09T07:53:55.662Z,4.87
2022-12-09T07:56:24.771Z,4.93
2022-12-09T07:58:54.593Z,4.85
2022-12-09T08:01:25.377Z,4.84
2022-12-09T08:03:54.481Z,4.96
2022-12-09T08:06:25.917Z,4.93
2022-12-09T08:08:54.910Z,5.00
2022-12-09T08:11:24.596Z,4.98
2022-12-09T08:13:56.997Z,5.03
2022-12-09T08:16:25.904Z,4.96
2022-12-09T08:18:55.414Z,4.82
2022-12-09T08:21:25.636Z,4.96
2022-12-09T08:23:55.576Z,4.96
2022-12-09T08:26:25.536Z,4.56
2022-12-09T08:28:55.702Z,4.62
2022-12-09T08:31:26.108Z,4.36
2022-12-09T08:33:55.705Z,4.57
2022-12-09T08:36:26.450Z,4.52
2022-12-09T08:38:55.415Z,4.74
2022-12-09T08:41:35.931Z,4.76
2022-12-09T08:44:08.828Z,4.60
2022-12-09T08:46:39.429Z,4.77
2022-12-09T08:49:08.283Z,4.27
2022-12-09T08:51:36.634Z,3.91
2022-12-09T08:54:06.785Z,4.25
2022-12-09T08:56:35.005Z,4.31
2022-12-09T08:59:04.015Z,4.38
2022-12-09T09:01:35.884Z,3.88
2022-12-09T09:04:06.812Z,4.14
2022-12-09T09:06:36.236Z,4.30
2022-12-09T09:09:05.013Z,4.29
2022-12-09T09:11:33.475Z,4.37
2022-12-09T09:14:04.392Z,4.63
2022-12-09T09:16:34.651Z,4.54
2022-12-09T09:19:05.841Z,4.70
2022-12-09T09:21:35.737Z,4.27
2022-12-09T09:24:08.691Z,4.42
2022-12-09T09:26:40.144Z,4.48
2022-12-09T09:29:08.567Z,4.51
2022-12-09T09:31:38.284Z,4.22
2022-12-09T09:34:06.546Z,4.01
2022-12-09T09:36:34.762Z,4.39
2022-12-09T09:39:03.151Z,4.46
2022-12-09T09:41:43.722Z,4.38
2022-12-09T09:44:19.947Z,4.71
2022-12-09T09:46:51.659Z,4.82
2022-12-09T09:49:27.914Z,4.72
2022-12-09T09:51:56.362Z,4.55
2022-12-09T09:54:24.374Z,4.45
2022-12-09T09:57:00.036Z,4.66
2022-12-09T09:59:39.332Z,4.81
2022-12-09T10:02:19.748Z,4.59
2022-12-09T10:05:04.645Z,4.49
2022-12-09T10:07:40.118Z,4.48
2022-12-09T10:10:21.778Z,4.92
2022-12-09T10:13:09.477Z,4.75
2022-12-09T10:15:46.632Z,5.03
2022-12-09T10:18:21.927Z,5.14
2022-12-09T10:20:50.467Z,4.90
2022-12-09T10:23:19.184Z,5.05
2022-12-09T10:25:51.958Z,5.00
2022-12-09T10:28:23.118Z,4.82
2022-12-09T10:30:53.472Z,5.13
2022-12-09T10:33:28.490Z,4.83
2022-12-09T10:35:57.050Z,4.26
2022-12-09T10:38:26.724Z,4.31
2022-12-09T10:41:03.846Z,3.75
2022-12-09T10:43:37.453Z,3.75
2022-12-09T10:46:19.319Z,3.71
2022-12-09T10:49:01.545Z,3.67
2022-12-09T10:51:32.021Z,3.93
2022-12-09T10:54:02.711Z,4.32
2022-12-09T10:56:33.332Z,4.57
2022-12-09T10:59:11.810Z,4.51
2022-12-09T11:01:50.910Z,4.49
2022-12-09T11:04:24.881Z,4.71
2022-12-09T11:06:59.396Z,4.75
2022-12-09T11:09:31.323Z,4.61
2022-12-09T11:12:01.190Z,4.60
2022-12-09T11:14:35.291Z,4.67
2022-12-09T11:17:15.615Z,4.85
2022-12-09T11:19:48.911Z,4.96
2022-12-09T11:22:33.524Z,4.94
2022-12-09T11:25:20.125Z,5.04
2022-12-09T11:27:52.419Z,4.89
2022-12-09T11:30:23.488Z,5.15
2022-12-09T11:33:02.251Z,5.17
2022-12-09T11:35:40.057Z,5.12
2022-12-09T11:38:18.653Z,4.81
2022-12-09T11:41:02.908Z,5.18
2022-12-09T11:43:34.664Z,4.56
2022-12-09T11:46:16.351Z,4.62
2022-12-09T11:48:50.754Z,4.55
2022-12-09T11:51:24.018Z,4.55
2022-12-09T11:54:01.776Z,4.68
2022-12-09T11:56:31.650Z,5.09
2022-12-09T11:59:04.251Z,5.09
2022-12-09T12:01:45.813Z,5.28
2022-12-09T12:04:16.179Z,5.31
2022-12-09T12:06:48.911Z,5.38
2022-12-09T12:09:23.707Z,4.78
2022-12-09T12:12:03.586Z,4.68
2022-12-09T12:14:32.192Z,4.65
2022-12-09T12:17:10.326Z,5.09
2022-12-09T12:19:40.818Z,4.83
2022-12-09T12:22:28.648Z,4.80
2022-12-09T12:25:17.328Z,4.99
2022-12-09T12:28:03.195Z,4.98
2022-12-09T12:30:41.469Z,4.99
2022-12-09T12:34:00.377Z,5.22
2022-12-09T12:36:29.098Z,5.31
2022-12-09T12:39:06.699Z,5.37
2022-12-09T12:41:42.685Z,4.45
2022-12-09T12:44:54.399Z,4.61
2022-12-09T12:47:30.424Z,5.09
2022-12-09T12:50:12.791Z,5.05
2022-12-09T12:52:55.906Z,5.16
2022-12-09T12:55:53.716Z,5.08
2022-12-09T12:58:50.269Z,4.96
2022-12-09T13:01:33.158Z,5.27
2022-12-09T13:04:18.639Z,5.07
2022-12-09T13:06:56.137Z,4.38
2022-12-09T13:09:30.459Z,4.41
2022-12-09T13:12:08.982Z,4.50
2022-12-09T13:14:41.951Z,4.78
2022-12-09T13:17:14.889Z,4.63
2022-12-09T13:19:45.594Z,5.05
2022-12-09T13:22:20.537Z,4.99
2022-12-09T13:25:00.109Z,5.19
2022-12-09T13:27:38.635Z,5.17
2022-12-09T13:30:14.385Z,5.42
2022-12-09T13:33:16.655Z,5.45
2022-12-09T13:35:54.862Z,5.50
2022-12-09T13:38:28.123Z,5.21
2022-12-09T13:40:55.800Z,4.81
2022-12-09T13:43:27.530Z,4.99
2022-12-09T13:45:58.021Z,4.65
2022-12-09T13:48:48.636Z,4.92
2022-12-09T13:51:18.294Z,4.43
2022-12-09T13:53:53.648Z,4.79
2022-12-09T13:56:26.831Z,4.18
2022-12-09T13:59:40.098Z,4.16
2022-12-09T14:02:21.368Z,4.01
2022-12-09T14:05:00.442Z,3.30
2022-12-09T14:07:35.369Z,3.74
2022-12-09T14:10:04.689Z,4.06
2022-12-09T14:13:03.945Z,3.88
2022-12-09T14:15:37.789Z,4.11
2022-12-09T14:18:28.791Z,3.81
2022-12-09T14:21:31.148Z,3.92
2022-12-09T14:24:33.783Z,3.65
2022-12-09T14:27:20.754Z,3.81
2022-12-09T14:29:52.545Z,3.52
2022-12-09T14:32:23.146Z,3.23
2022-12-09T14:35:06.058Z,3.33
2022-12-09T14:38:04.604Z,3.68
2022-12-09T14:40:53.556Z,3.71
2022-12-09T14:43:50.461Z,3.69
2022-12-09T14:46:25.425Z,3.23
2022-12-09T14:48:57.500Z,3.54
2022-12-09T14:51:34.770Z,3.43
2022-12-09T14:54:07.284Z,3.75
2022-12-09T14:56:36.056Z,3.52
2022-12-09T14:59:07.661Z,3.67
2022-12-09T15:01:52.546Z,3.69
2022-12-09T15:04:30.979Z,2.85
2022-12-09T15:07:11.485Z,2.09
2022-12-09T15:09:48.132Z,2.36
2022-12-09T15:12:16.309Z,2.72
2022-12-09T15:14:45.721Z,3.12
2022-12-09T15:17:28.851Z,3.21
2022-12-09T15:20:01.037Z,3.02
2022-12-09T15:22:33.361Z,2.88
2022-12-09T15:25:02.461Z,2.61
2022-12-09T15:27:31.497Z,2.87
2022-12-09T15:30:14.888Z,3.02
2022-12-09T15:32:42.578Z,3.24
2022-12-09T15:35:18.631Z,3.33
2022-12-09T15:37:50.593Z,3.39
2022-12-09T15:40:22.352Z,3.20
2022-12-09T15:42:53.648Z,3.40
2022-12-09T15:45:24.290Z,3.47
2022-12-09T15:47:57.749Z,3.65
2022-12-09T15:50:30.705Z,3.39
2022-12-09T15:53:05.524Z,3.32
2022-12-09T15:55:38.554Z,3.53
2022-12-09T15:58:08.763Z,3.05
2022-12-09T16:00:40.809Z,2.62
2022-12-09T16:03:09.368Z,2.66
2022-12-09T16:05:41.748Z,2.93
2022-12-09T16:08:11.749Z,3.00
2022-12-09T16:10:47.665Z,2.20
2022-12-09T16:13:17.676Z,2.80
2022-12-09T16:15:51.808Z,3.12
2022-12-09T16:18:23.331Z,2.40
2022-12-09T16:21:16.149Z,2.42
2022-12-09T16:23:48.170Z,2.48
2022-12-09T16:26:22.297Z,2.75
2022-12-09T16:28:56.813Z,2.82
2022-12-09T16:31:25.151Z,2.68
2022-12-09T16:33:53.490Z,3.02
2022-12-09T16:36:25.147Z,3.19
2022-12-09T16:39:27.875Z,3.13
2022-12-09T16:41:58.699Z,2.61
2022-12-09T16:44:30.837Z,2.61
2022-12-09T16:47:20.859Z,2.09
2022-12-09T16:49:49.645Z,2.44
2022-12-09T16:52:21.279Z,2.82
2022-12-09T16:54:52.031Z,2.93
2022-12-09T16:57:21.221Z,2.80
2022-12-09T16:59:49.291Z,2.94
2022-12-09T17:02:22.366Z,2.89
2022-12-09T17:04:50.522Z,3.21
2022-12-09T17:07:18.493Z,3.22
2022-12-09T17:09:46.388Z,3.30
2022-12-09T17:12:15.613Z,3.32
2022-12-09T17:14:43.601Z,3.09
2022-12-09T17:17:11.463Z,3.09
2022-12-09T17:19:41.695Z,3.39
2022-12-09T17:22:09.889Z,3.19
2022-12-09T17:24:37.859Z,3.42
2022-12-09T17:27:05.690Z,3.29
2022-12-09T17:29:34.895Z,2.98
2022-12-09T17:32:02.786Z,3.11
2022-12-09T17:34:30.654Z,3.18
2022-12-09T17:36:58.753Z,3.26
2022-12-09T17:39:26.628Z,3.14
2022-12-09T17:41:54.542Z,3.02
2022-12-09T17:44:22.609Z,3.15
2022-12-09T17:46:51.777Z,3.01
2022-12-09T17:49:20.933Z,3.06
2022-12-09T17:51:49.151Z,3.10
2022-12-09T17:54:16.988Z,3.19
2022-12-09T17:56:46.565Z,3.16
2022-12-09T17:59:16.771Z,3.35
2022-12-09T18:01:46.225Z,3.32
2022-12-09T18:04:16.225Z,3.31
2022-12-09T18:06:45.535Z,3.08
2022-12-09T18:09:15.539Z,3.22
2022-12-09T18:11:44.121Z,3.10
2022-12-09T18:14:12.003Z,3.09
2022-12-09T18:16:40.311Z,2.88
2022-12-09T18:19:11.165Z,3.01
2022-12-09T18:21:40.604Z,2.90
2022-12-09T18:24:09.288Z,2.53
2022-12-09T18:26:41.548Z,2.39
2022-12-09T18:29:10.556Z,2.60
2022-12-09T18:31:38.540Z,2.95
2022-12-09T18:34:06.534Z,3.03
2022-12-09T18:36:34.513Z,3.19
2022-12-09T18:39:04.199Z,2.90
2022-12-09T18:41:32.621Z,3.07
2022-12-09T18:44:04.016Z,3.14
2022-12-09T18:46:33.789Z,3.16
2022-12-09T18:49:03.692Z,2.70
2022-12-09T18:51:32.851Z,3.08
2022-12-09T18:54:02.122Z,3.09
2022-12-09T18:56:32.066Z,3.19
2022-12-09T18:59:09.019Z,3.32
2022-12-09T19:01:40.609Z,3.14
2022-12-09T19:04:12.514Z,3.18
2022-12-09T19:06:41.824Z,3.07
2022-12-09T19:09:13.181Z,2.89
2022-12-09T19:11:43.100Z,2.88
2022-12-09T19:14:11.556Z,2.85
2022-12-09T19:16:39.782Z,3.03
2022-12-09T19:19:10.453Z,3.02
2022-12-09T19:21:39.766Z,3.20
2022-12-09T19:24:08.863Z,2.87
2022-12-09T19:26:37.633Z,2.95
2022-12-09T19:29:08.868Z,2.74
2022-12-09T19:31:39.920Z,2.78
2022-12-09T19:34:11.978Z,2.93
2022-12-09T19:36:39.932Z,2.79
2022-12-09T19:39:09.305Z,2.76
2022-12-09T19:41:37.886Z,2.96
2022-12-09T19:44:08.553Z,2.85
2022-12-09T19:46:38.437Z,2.64
2022-12-09T19:49:06.534Z,2.81
2022-12-09T19:51:34.877Z,2.85
2022-12-09T19:54:03.188Z,2.69
2022-12-09T19:56:31.501Z,2.77
2022-12-09T19:59:00.711Z,2.66
2022-12-09T20:01:32.562Z,2.76
2022-12-09T20:04:19.041Z,2.73
2022-12-09T20:06:51.630Z,2.40
2022-12-09T20:09:24.353Z,2.86
2022-12-09T20:11:52.883Z,2.65
2022-12-09T20:14:21.188Z,2.54
2022-12-09T20:16:50.520Z,2.79
2022-12-09T20:19:19.761Z,2.47
2022-12-09T20:21:47.691Z,2.15
2022-12-09T20:24:15.597Z,2.59
2022-12-09T20:26:44.291Z,2.74
2022-12-09T20:29:12.306Z,3.03
2022-12-09T20:31:41.029Z,3.17
2022-12-09T20:34:13.363Z,3.22
2022-12-09T20:36:43.294Z,3.25
2022-12-09T20:39:14.960Z,3.06
2022-12-09T20:41:44.435Z,2.93
2022-12-09T20:44:13.623Z,3.13
2022-12-09T20:46:45.218Z,3.04
2022-12-09T20:49:14.539Z,3.14
2022-12-09T20:51:45.112Z,3.27
2022-12-09T20:54:13.090Z,3.09
2022-12-09T20:56:41.138Z,2.98
2022-12-09T20:59:10.558Z,3.16
2022-12-09T21:01:39.233Z,3.23
2022-12-09T21:04:08.439Z,2.99
2022-12-09T21:06:40.104Z,3.30
2022-12-09T21:09:10.290Z,3.14
2022-12-09T21:11:39.459Z,3.13
2022-12-09T21:14:07.983Z,3.10
2022-12-09T21:16:38.751Z,2.82
2022-12-09T21:19:10.304Z,2.92
2022-12-09T21:21:41.400Z,2.62
2022-12-09T21:24:11.767Z,2.43
2022-12-09T21:26:40.347Z,2.32
2022-12-09T21:29:09.134Z,2.59
2022-12-09T21:31:38.862Z,2.88
2022-12-09T21:34:08.498Z,2.69
2022-12-09T21:36:38.656Z,2.70
2022-12-09T21:39:09.049Z,2.63
2022-12-09T21:41:38.293Z,2.90
2022-12-09T21:44:07.427Z,2.28
2022-12-09T21:46:37.418Z,1.92
2022-12-09T21:49:07.375Z,2.24
2022-12-09T21:51:36.422Z,2.71
2022-12-09T21:54:04.814Z,2.85
2022-12-09T21:56:35.738Z,3.00
2022-12-09T21:59:05.974Z,3.18
2022-12-09T22:01:35.754Z,3.05
2022-12-09T22:04:05.735Z,2.91
2022-12-09T22:06:34.015Z,2.99
2022-12-09T22:09:03.610Z,3.01
2022-12-09T22:11:33.037Z,3.06
2022-12-09T22:14:02.841Z,2.99
2022-12-09T22:16:33.205Z,2.99
2022-12-09T22:19:03.057Z,2.80
2022-12-09T22:21:33.656Z,2.97
2022-12-09T22:24:04.440Z,3.06
2022-12-09T22:26:32.884Z,2.94
2022-12-09T22:29:03.503Z,2.98
2022-12-09T22:31:33.338Z,2.95
2022-12-09T22:34:03.203Z,2.76
2022-12-09T22:36:31.345Z,2.77
2022-12-09T22:38:59.309Z,2.69
2022-12-09T22:41:29.852Z,2.76
2022-12-09T22:43:58.586Z,2.53
2022-12-09T22:46:29.574Z,2.86
2022-12-09T22:48:58.255Z,2.51
2022-12-09T22:51:28.070Z,2.53
2022-12-09T22:53:57.816Z,2.44
2022-12-09T22:56:26.833Z,2.52
2022-12-09T22:58:55.243Z,2.72
2022-12-09T23:01:25.698Z,2.61
2022-12-09T23:03:55.942Z,2.50
2022-12-09T23:06:24.526Z,2.52
2022-12-09T23:08:52.725Z,2.40
2022-12-09T23:11:22.569Z,2.46
2022-12-09T23:13:51.210Z,2.67
2022-12-09T23:16:21.846Z,2.72
2022-12-09T23:18:51.217Z,2.88
2022-12-09T23:21:22.584Z,2.73
2022-12-09T23:23:53.393Z,2.48
2022-12-09T23:26:23.081Z,2.55
2022-12-09T23:28:52.565Z,2.54
2022-12-09T23:31:22.957Z,2.50
2022-12-09T23:33:52.458Z,2.49
2022-12-09T23:36:22.913Z,2.68
2022-12-09T23:38:52.183Z,2.57
2022-12-09T23:41:22.829Z,2.62
2022-12-09T23:43:51.889Z,2.65
2022-12-09T23:46:21.574Z,2.45
2022-12-09T23:48:51.005Z,2.35
2022-12-09T23:51:22.299Z,2.56
2022-12-09T23:53:52.079Z,2.50
2022-12-09T23:56:22.133Z,2.33
2022-12-09T23:58:55.078Z,2.41
